Parsons Landing, Santa Catalina Island Weather observations

Data are for 10 minute period ending at time listed.
 Day   Time   Solar   Ave.   Ave.  Ave.  Vector    Max.   Stn.   Total 
  of    of     Rad.   Air    Rel.  Wind   Wind     Wind   Baro. Precip. 
Year   Day            Temp.  Hum.  Speed  Dir.     Gust   Pres.         
2014   (PST)   W/m2    F      %     mph   deg.      mph    mb.    in.   
------------------------------------------------------------------------
 330   11:30  486.0    71   56.6     3    354.0     4.8    999.0   0.00  
 330   11:40  488.0    72   55.6     3    350.6     4.2    999.0   0.00  
 330   11:50  488.0    71   62.1     4    341.2     5.4    999.0   0.00  
 330   12:00  488.0    72   61.9     3    329.5     4.2    999.0   0.00  
 330   12:10  487.0    72   58.3     3    343.4     4.8    999.0   0.00  
 330   12:20  482.0    74   47.8     3    339.0     4.2    999.0   0.00  
 330   12:30  477.0    73   54.5     3    335.4     4.8    999.0   0.00  
 330   12:40  471.0    74   49.3     3    335.0     4.2    999.0   0.00  
 330   12:50  462.0    73   50.9     3    328.6     4.2    999.0   0.00  
 330   13:00  454.0    74   47.2     3    338.5     4.2    999.0   0.00  
 330   13:10  444.0    75   37.7     3    334.6     4.2    999.0   0.00  
 330   13:20  432.0    76   31.9     3    348.2     4.2    999.0   0.00  
 330   13:30  419.0    75   31.6     3    344.7     4.2    999.0   0.00  
 330   13:40  404.0    76   36.5     3    337.0     4.2    999.0   0.00  
 330   13:50  388.0    75   36.1     3    338.2     4.8    999.0   0.00  
 330   14:00  371.0    75   28.5     4    325.7     5.4    999.0   0.00  
 330   14:10  353.0    75   32.5     4    327.0     5.4    999.0   0.00  
 330   14:20  334.0    75   29.7     3    337.4     4.8    999.0   0.00  
 330   14:30  314.0    74   41.0     3      2.3     4.2    999.0   0.00  
 330   14:40  292.0    71   56.4     4     14.1     5.4    999.0   0.00  
 330   14:50  270.0    71   58.1     3     13.8     4.2    999.0   0.00  
 330   15:00  248.0    71   63.5     3     19.5     4.8    999.0   0.00  
 330   15:10  225.0    70   65.6     3      9.8     3.6    999.0   0.00  
 330   15:20  202.0    71   64.9     2      2.5     4.2    999.0   0.00  
 330   15:30  178.0    69   64.0     2     20.5     4.8    999.0   0.00  
 330   15:40  154.0    70   57.3     3     36.4     4.2    999.0   0.00  
 330   15:50   90.0    69   53.6     2     51.0     3.6    999.0   0.00  
 330   16:00   19.0    69   42.7     2     94.9     3.0    999.0   0.00  
 330   16:10   16.0    69   43.4     2    330.3     4.2    999.0   0.00  
 330   16:20   13.0    67   46.1     3     13.6     4.2    999.0   0.00  
 330   16:30   12.0    66   47.3     3      4.6     4.8    999.0   0.00  
 330   16:40    8.0    66   42.5     3      7.4     4.8    999.0   0.00  
 330   16:50    4.0    67   37.8     4     11.0     6.0    999.0   0.00  
 330   17:00    2.0    67   34.0     4    349.2     6.0    999.0   0.00  
 330   17:10    0.0    66   35.5     5    346.6     6.6    999.0   0.00  
 330   17:20    0.0    66   36.2     4    346.5     6.6    999.0   0.00  
 330   17:30    0.0    65   35.5     3    328.9     6.6    999.0   0.00  
 330   17:40    0.0    66   30.0     4    315.5     7.8    999.0   0.00  
 330   17:50    0.0    66   31.0     4    312.9     8.4    999.0   0.00  
 330   18:00    0.0    68   24.5     6    304.2    10.2    999.0   0.00  
 330   18:10    0.0    70   22.3     5    296.3     8.4    999.0   0.00  
 330   18:20    0.0    70   22.3     4    304.9     6.6    999.0   0.00  
 330   18:30    0.0    70   22.6     5    316.2     7.2    999.0   0.00  
 330   18:40    0.0    69   23.8     6    319.4     9.0    999.0   0.00  
 330   18:50    0.0    69   24.4     7    317.4    10.8    999.0   0.00  
 330   19:00    0.0    70   23.1     6    301.9     9.6    999.0   0.00  
 330   19:10    0.0    69   23.0     5    299.4     7.8    999.0   0.00  
 330   19:20    0.0    70   21.6     4    280.9     7.2    999.0   0.00  
 330   19:30    0.0    70   21.3     4    281.5     7.8    999.0   0.00  
 330   19:40    0.0    72   19.8     4    297.1     9.0    999.0   0.00  
 330   19:50    0.0    72   20.0     4    299.8     6.6    999.0   0.00  
 330   20:00    0.0    72   20.4     3    274.9     6.6    999.0   0.00  
 330   20:10    0.0    72   20.6     4    306.4     5.4    999.0   0.00  
 330   20:20    0.0    72   20.7     4    292.2     6.6    999.0   0.00  
 330   20:30    0.0    72   20.8     4    275.6     7.2    999.0   0.00  
 330   20:40    0.0    73   20.4     8    263.7    12.5    999.0   0.00  
 330   20:50    0.0    74   20.8     7    263.4    10.2    999.0   0.00  
 330   21:00    0.0    73   21.4     6    271.3    10.2    999.0   0.00  
 330   21:10    0.0    73   21.9     5    265.2     8.4    999.0   0.00  
 330   21:20    0.0    73   22.0     5    263.5    11.3    999.0   0.00  
 330   21:30    0.0    73   22.6     5    269.0     8.4    999.0   0.00  
 330   21:40    0.0    73   22.4     5    280.8     8.4    999.0   0.00  
 330   21:50    0.0    73   22.5     5    289.7     6.6    999.0   0.00  
 330   22:00    0.0    74   22.3     5    281.8     7.2    999.0   0.00  
 330   22:10    0.0    73   22.2     5    292.6     8.4    999.0   0.00  
 330   22:20    0.0    73   21.8     5    295.6     7.2    999.0   0.00  
 330   22:30    0.0    73   22.1     5    303.8     7.8    999.0   0.00  
 330   22:40    0.0    73   22.2     5    305.0     9.6    999.0   0.00  
 330   22:50    0.0    72   23.0     3    334.0     7.2    999.0   0.00  
 330   23:00    0.0    70   24.3     4    309.3     6.6    999.0   0.00  
 330   23:10    0.0    69   31.8     5    317.5     9.0    999.0   0.00  
 330   23:20    0.0    67   39.9     2    337.3     4.8    999.0   0.00  
 330   23:30    0.0    66   37.0     3    219.4     4.2    999.0   0.00  
 330   23:40    0.0    69   28.8     3    179.0     4.2    999.0   0.00  
 330   23:50    0.0    71   25.1     2    189.8     3.0    999.0   0.00  
 331    0:00    0.0    76   22.6     2    243.6     3.6    999.0   0.00  
 331    0:10    0.0    72   33.9     4    329.5     5.4    999.0   0.00  
 331    0:20    0.0    67   52.9     2    353.1     3.6    999.0   0.00  
 331    0:30    0.0    68   35.1     1    134.1     2.4    999.0   0.00  
 331    0:40    0.0    72   25.3     2    263.4     2.4    999.0   0.00  
 331    0:50    0.0    71   39.3     2    350.0     3.0    999.0   0.00  
 331    1:00    0.0    68   37.0     1    239.0     2.4    999.0   0.00  
 331    1:10    0.0    72   24.7     2    231.9     3.0    999.0   0.00  
 331    1:20    0.0    74   22.8     2    192.5     3.0    999.0   0.00  
 331    1:30    0.0    73   23.3     3    162.8     3.6    999.0   0.00  
 331    1:40    0.0    73   23.2     2    156.4     3.0    999.0   0.00  
 331    1:50    0.0    75   22.2     2    195.8     3.0    999.0   0.00  
 331    2:00    0.0    76   21.7     2    191.0     3.0    999.0   0.00  
 331    2:10    0.0    75   22.0     2    196.0     2.4    999.0   0.00  
 331    2:20    0.0    74   35.0     2    341.0     3.0    999.0   0.00  
 331    2:30    0.0    70   41.5     2     53.9     3.0    999.0   0.00  
 331    2:40    0.0    72   30.0     2    105.5     2.4    999.0   0.00  
 331    2:50    0.0    74   22.7     2    146.7     2.4    999.0   0.00  
 331    3:00    0.0    73   22.9     2    154.1     3.6    999.0   0.00  
 331    3:10    0.0    74   22.2     3    149.3     3.6    999.0   0.00  
 331    3:20    0.0    74   21.7     3    154.2     4.8    999.0   0.00  
 331    3:30    0.0    74   22.0     5    151.0     6.6    999.0   0.00  
 331    3:40    0.0    74   22.0     6    159.4     7.8    999.0   0.00  
 331    3:50    0.0    74   22.3     4    148.2     6.0    999.0   0.00  
 331    4:00    0.0    74   22.0     2    120.2     4.2    999.0   0.00  
 331    4:10    0.0    72   23.1     4    142.9     7.2    999.0   0.00  
 331    4:20    0.0    72   23.0     6    145.6     7.8    999.0   0.00  
 331    4:30    0.0    71   24.1     6    145.3     7.8    999.0   0.00  
 331    4:40    0.0    73   23.6     6    144.9     8.4    999.0   0.00  
 331    4:50    0.0    73   23.2     6    142.4     7.2    999.0   0.00  
 331    5:00    0.0    74   22.5     5    121.2     6.6    999.0   0.00  
 331    5:10    0.0    73   22.8     5    144.2     9.0    999.0   0.00  
 331    5:20    0.0    74   22.1     5    154.1     6.6    999.0   0.00  
 331    5:30    0.0    74   22.0     5    154.6     7.2    999.0   0.00  
 331    5:40    0.0    73   22.2     4    145.4     6.0    999.0   0.00  
 331    5:50    0.0    73   22.5     5    160.0     6.6    999.0   0.00  
 331    6:00    0.0    74   21.7     4    154.8     6.6    999.0   0.00  
 331    6:10    0.0    74   21.8     4    150.8     5.4    999.0   0.00  
 331    6:20    0.0    73   22.1     4    136.0     6.6    999.0   0.00  
 331    6:30    1.0    72   23.0     4    111.6     6.6    999.0   0.00  
 331    6:40    3.0    73   22.2     4     89.5     6.0    999.0   0.00  
 331    6:50    7.0    73   22.5     5    100.1     7.2    999.0   0.00  
 331    7:00   10.0    74   22.2     4    106.7     7.2    999.0   0.00  
 331    7:10   20.0    74   22.2     5    106.9     7.8    999.0   0.00  
 331    7:20   65.0    75   22.1     6    103.9     7.2    999.0   0.00  
 331    7:30   95.0    74   22.5     5    116.7     7.8    999.0   0.00  
 331    7:40  116.0    75   22.7     5    116.2     7.8    999.0   0.00  
 331    7:50  142.0    75   22.7     6    119.7     9.0    999.0   0.00  
 331    8:00  166.0    75   23.2     7    118.6     9.0    999.0   0.00  
 331    8:10  190.0    76   22.9     6    117.8     9.0    999.0   0.00  
 331    8:20  214.0    76   22.8     5    120.2     7.8    999.0   0.00  
 331    8:30  239.0    76   23.2     5    112.1     7.8    999.0   0.00  
 331    8:40  261.0    77   22.9     5    107.8     7.8    999.0   0.00  
 331    8:50  276.0    78   23.3     5     82.2     7.2    999.0   0.00  
 331    9:00  305.0    78   23.8     5     89.2     7.2    999.0   0.00  
 331    9:10  326.0    78   24.2     5     84.1     7.2    999.0   0.00  
 331    9:20  336.0    78   23.8     5     73.6     6.6    999.0   0.00  
 331    9:30  362.0    79   23.7     5     74.3     7.8    999.0   0.00  
 331    9:40  379.0    79   23.5     5     74.4     8.4    999.0   0.00  
 331    9:50  395.0    79   24.1     4     84.6     7.2    999.0   0.00  
 331   10:00  411.0    79   23.6     5     70.4     6.6    999.0   0.00  
 331   10:10  425.0    79   23.1     5     87.5     7.2    999.0   0.00  
 331   10:20  438.0    79   23.4     5     61.0     6.6    999.0   0.00  
 331   10:30  451.0    79   23.2     4     57.3     6.0    999.0   0.00  
 331   10:40  462.0    80   22.6     4     62.7     5.4    999.0   0.00  
 331   10:50  473.0    80   22.1     4     54.0     6.0    999.0   0.00  
 331   11:00  481.0    80   22.3     4     55.8     5.4    999.0   0.00  
 331   11:10  487.0    80   24.1     4     15.5     6.0    999.0   0.00  
 331   11:20  491.0    79   27.6     3    353.9     4.8    999.0   0.00  

Return to Parsons Landing graphs page.


Western Regional Climate Center,wrcc@dri.edu